EGCN/DSA METAR and TAF weather

Enter ICAO airport designator
Station Type Date Time Source
EGCN METAR 2021/09/16 11:50 UTC NOAA

EGCN 161150Z 25008KT 210V310 9999 FEW029 SCT034TCU 20/14 Q1017


Station Type Date Time Source
EGCN Decoded METAR 2021/09/16 11:50 UTC NOAA

Station name not available
Sep 16, 2021 - 07:50 AM EDT / 2021.09.16 1150 UTC
Wind: from the WSW (250 degrees) at 9 MPH (8 KT) (direction variable):0
Visibility: greater than 7 mile(s):0
Sky conditions: partly cloudy
Weather: Towering cumulus clouds observed
Temperature: 68 F (20 C)
Dew Point: 57 F (14 C)
Relative Humidity: 68%
Pressure (altimeter): 30.03 in. Hg (1017 hPa)
ob: EGCN 161150Z 25008KT 210V310 9999 FEW029 SCT034TCU 20/14 Q1017
cycle: 12

Station Type Date Time Source
EGCN TAF 2021/09/16 12:00 UTC NOAA

TAF EGCN 161101Z 1612/1712 27006KT 9999 SCT030 PROB30
TEMPO 1622/1703 9000
TEMPO 1703/1709 7000
BECMG 1709/1712 19010KT

Example: see airport list